Time;durP1;ratioP1;P1;durP2;ratioP2;P2;SDS_P1;SDS_P2;PMS_P1;PMS_P2;Temp;Humidity;BMP_temperature;BMP_pressure;BME280_temperature;BME280_humidity;BME280_pressure;Samples;Min_cycle;Max_cycle;Signal;HPM_P1;HPM_P2
2021/04/19 00:00:00;;;;;;;4.03;2.83;;;;;;;18.90;44.40;99962.59;2050369;28;20031;-65
2021/04/19 00:01:01;;;;;;;3.83;2.73;;;;;;;18.90;44.73;99957.13;2051520;28;20064;-65
2021/04/19 00:02:03;;;;;;;3.37;2.50;;;;;;;18.90;44.65;99954.41;2052468;28;20075;-65
2021/04/19 00:03:03;;;;;;;4.70;3.25;;;;;;;18.91;44.49;99964.31;2053279;28;20437;-65
2021/04/19 00:04:04;;;;;;;4.47;3.17;;;;;;;18.89;44.46;99958.13;2055239;28;20026;-65
2021/04/19 00:05:11;;;;;;;5.40;2.70;;;;;;;18.89;44.43;99967.22;2051799;28;20027;-65
2021/04/19 00:06:11;;;;;;;3.83;2.63;;;;;;;18.91;44.43;99953.38;2052194;28;20097;-65
2021/04/19 00:07:12;;;;;;;3.87;3.03;;;;;;;18.91;44.48;99956.13;2054453;28;20041;-65
2021/04/19 00:08:13;;;;;;;4.33;2.87;;;;;;;18.90;44.47;99954.41;2053082;28;20030;-65
2021/04/19 00:09:13;;;;;;;3.77;2.70;;;;;;;18.90;44.45;99959.88;2054964;28;20097;-65
2021/04/19 00:10:16;;;;;;;4.47;2.80;;;;;;;18.89;44.54;99958.13;2055250;28;20074;-65
2021/04/19 00:11:17;;;;;;;4.78;3.15;;;;;;;18.90;44.41;99954.41;2055241;28;20089;-65
2021/04/19 00:12:17;;;;;;;4.67;2.50;;;;;;;18.88;44.44;99956.44;2053128;28;20077;-65
2021/04/19 00:13:18;;;;;;;4.33;3.20;;;;;;;18.89;44.46;99958.13;2055542;28;20039;-65
2021/04/19 00:14:18;;;;;;;3.70;2.70;;;;;;;18.90;44.43;99959.88;2049697;28;20548;-65
2021/04/19 00:15:20;;;;;;;4.80;3.33;;;;;;;18.90;44.27;99959.88;2050979;28;20027;-65
2021/04/19 00:16:20;;;;;;;5.68;3.58;;;;;;;18.91;44.45;99956.13;2054838;28;20031;-65
2021/04/19 00:17:21;;;;;;;3.90;3.20;;;;;;;18.88;44.49;99956.44;2054811;28;20130;-65
2021/04/19 00:18:21;;;;;;;4.20;2.77;;;;;;;18.89;44.44;99955.41;2054837;28;20692;-65
2021/04/19 00:19:22;;;;;;;4.63;3.23;;;;;;;18.89;44.38;99958.13;2055067;28;20037;-65
2021/04/19 00:20:22;;;;;;;4.77;2.80;;;;;;;18.87;44.42;99954.72;2052719;28;20041;-65
2021/04/19 00:21:23;;;;;;;3.60;2.87;;;;;;;18.84;44.39;99948.53;2055323;28;20413;-65
2021/04/19 00:22:23;;;;;;;5.13;3.30;;;;;;;18.85;44.44;99946.66;2054228;28;20085;-65
2021/04/19 00:23:24;;;;;;;4.77;3.07;;;;;;;18.87;44.49;99946.53;2053666;28;20035;-65
2021/04/19 00:24:24;;;;;;;5.03;3.00;;;;;;;18.85;44.56;99958.44;2055407;28;20392;-65
2021/04/19 00:25:25;;;;;;;3.97;2.93;;;;;;;18.84;44.39;99951.28;2054418;28;20026;-65
2021/04/19 00:26:25;;;;;;;3.63;2.93;;;;;;;18.83;44.23;99948.69;2055375;28;20588;-65
2021/04/19 00:27:26;;;;;;;4.70;3.03;;;;;;;18.85;44.29;99952.97;2054491;28;20023;-65
2021/04/19 00:28:26;;;;;;;3.33;2.70;;;;;;;18.84;44.42;99954.00;2053180;28;20019;-65
2021/04/19 00:29:27;;;;;;;3.90;2.80;;;;;;;18.85;44.35;99950.25;2055342;28;20081;-65
2021/04/19 00:30:28;;;;;;;3.73;2.60;;;;;;;18.82;44.34;99942.38;2054774;28;20437;-65
2021/04/19 00:31:28;;;;;;;3.80;2.50;;;;;;;18.82;44.48;99946.97;2055386;28;20030;-65
2021/04/19 00:32:29;;;;;;;4.10;2.90;;;;;;;18.82;44.49;99936.91;2052714;28;20037;-65
2021/04/19 00:33:29;;;;;;;3.93;3.00;;;;;;;18.81;44.41;99943.41;2054786;28;20030;-65
2021/04/19 00:34:30;;;;;;;7.47;2.83;;;;;;;18.81;44.38;99947.97;2051728;28;20057;-66
2021/04/19 00:35:30;;;;;;;3.77;3.17;;;;;;;18.81;44.34;99946.13;2054506;28;20131;-65
2021/04/19 00:36:31;;;;;;;4.43;2.67;;;;;;;18.80;44.42;99947.13;2059860;28;20079;-66
2021/04/19 00:37:31;;;;;;;3.95;2.55;;;;;;;18.81;44.51;99946.13;2054609;28;20026;-65
2021/04/19 00:38:32;;;;;;;3.33;2.67;;;;;;;18.79;44.51;99948.16;2047331;28;20026;-65
2021/04/19 00:39:33;;;;;;;3.93;2.80;;;;;;;18.80;44.34;99938.94;2048213;28;20434;-65
2021/04/19 00:40:36;;;;;;;4.27;3.00;;;;;;;18.81;44.42;99957.06;2055166;28;20061;-65
2021/04/19 00:41:36;;;;;;;3.97;2.67;;;;;;;18.83;44.42;99948.69;2054353;28;20110;-66
2021/04/19 00:42:37;;;;;;;4.60;2.50;;;;;;;18.82;44.37;99947.84;2053304;28;20023;-66
2021/04/19 00:43:38;;;;;;;4.93;2.57;;;;;;;18.83;44.48;99952.28;2054433;28;20030;-66
2021/04/19 00:44:38;;;;;;;5.03;2.73;;;;;;;18.84;44.37;99943.09;2050952;28;20701;-65
2021/04/19 00:45:40;;;;;;;3.97;3.20;;;;;;;18.83;44.24;99949.53;2054438;28;20061;-66
2021/04/19 00:46:41;;;;;;;3.47;2.75;;;;;;;18.83;44.24;99937.75;2054212;28;20434;-66
2021/04/19 00:47:45;;;;;;;4.77;2.57;;;;;;;18.84;44.19;99945.81;2054877;28;20023;-65
2021/04/19 00:48:45;;;;;;;3.72;2.80;;;;;;;18.84;44.23;99944.97;2053548;28;20053;-65
2021/04/19 00:49:46;;;;;;;3.00;2.40;;;;;;;18.83;44.30;99938.63;2053070;28;20022;-65
2021/04/19 00:50:46;;;;;;;3.30;2.70;;;;;;;18.84;44.33;99934.88;2062112;28;20501;-66
2021/04/19 00:51:47;;;;;;;4.30;3.10;;;;;;;18.85;44.26;99935.75;2052989;28;20027;-65
2021/04/19 00:52:48;;;;;;;4.40;3.20;;;;;;;18.88;44.08;99935.44;2049703;28;20022;-65
2021/04/19 00:53:49;;;;;;;3.13;2.53;;;;;;;18.89;44.19;99934.44;2047147;28;20031;-65
2021/04/19 00:54:49;;;;;;;4.07;2.80;;;;;;;18.90;43.95;99941.59;2053598;28;20763;-65
2021/04/19 00:55:51;;;;;;;4.67;2.87;;;;;;;18.91;44.08;99942.47;2054140;28;20082;-66
2021/04/19 00:56:51;;;;;;;4.32;3.17;;;;;;;18.90;44.11;99933.41;2054316;28;20027;-66
2021/04/19 00:57:52;;;;;;;3.47;2.73;;;;;;;18.92;44.08;99928.66;2054164;28;20110;-66
2021/04/19 00:58:53;;;;;;;4.17;2.73;;;;;;;18.91;43.98;99934.25;2049969;28;20259;-66
2021/04/19 00:59:54;;;;;;;5.40;2.80;;;;;;;18.92;43.94;99930.53;2047280;28;20102;-65
2021/04/19 01:00:55;;;;;;;4.17;3.03;;;;;;;18.90;44.14;99925.22;2054827;28;20026;-66
2021/04/19 01:01:57;;;;;;;4.80;2.85;;;;;;;18.89;44.22;99930.81;2051848;28;20522;-65
2021/04/19 01:02:59;;;;;;;4.20;2.92;;;;;;;18.90;43.94;99927.09;2049164;28;20031;-65
2021/04/19 01:04:05;;;;;;;3.75;3.00;;;;;;;18.89;44.13;99925.34;2049547;28;20070;-66
2021/04/19 01:05:21;;;;;;;3.85;2.70;;;;;;;18.88;43.94;99918.19;2047042;28;20027;-65
2021/04/19 01:06:21;;;;;;;2.95;2.42;;;;;;;18.89;44.04;99920.78;2052321;28;20065;-65
2021/04/19 01:07:22;;;;;;;4.37;2.80;;;;;;;18.89;44.07;99922.63;2054633;28;20034;-65
2021/04/19 01:08:22;;;;;;;4.13;3.10;;;;;;;18.90;43.93;99910.72;2054465;28;20538;-65
2021/04/19 01:09:27;;;;;;;3.87;2.63;;;;;;;18.90;43.91;99921.63;2054824;28;20086;-66
2021/04/19 01:10:28;;;;;;;3.22;2.55;;;;;;;18.90;43.82;99911.56;2052389;28;20027;-65
2021/04/19 01:11:28;;;;;;;3.63;2.60;;;;;;;18.90;43.90;99917.03;2054630;28;20046;-65
2021/04/19 01:12:29;;;;;;;3.10;2.40;;;;;;;18.89;44.08;99919.91;2053778;28;20061;-65
2021/04/19 01:13:29;;;;;;;3.90;2.33;;;;;;;18.89;44.09;99922.63;2052053;28;20037;-66
2021/04/19 01:14:30;;;;;;;3.40;2.57;;;;;;;18.88;43.86;99918.19;2051365;28;20106;-65
2021/04/19 01:15:31;;;;;;;4.10;2.73;;;;;;;18.89;43.96;99919.91;2054446;28;20027;-66
2021/04/19 01:16:31;;;;;;;3.45;2.63;;;;;;;18.89;43.99;99919.91;2054631;28;20033;-66
2021/04/19 01:17:32;;;;;;;3.70;2.60;;;;;;;18.88;44.02;99923.66;2054309;28;20038;-66
2021/04/19 01:18:33;;;;;;;4.30;2.67;;;;;;;18.86;43.89;99915.59;2050616;28;20066;-66
2021/04/19 01:19:33;;;;;;;3.27;2.70;;;;;;;18.87;44.01;99916.47;2053223;28;20080;-66
2021/04/19 01:20:44;;;;;;;4.03;2.77;;;;;;;18.85;43.96;99920.22;2052818;28;20022;-65
2021/04/19 01:21:44;;;;;;;4.68;2.92;;;;;;;18.84;43.98;99918.50;2054177;28;20019;-65
2021/04/19 01:22:46;;;;;;;3.90;2.73;;;;;;;18.85;43.97;99920.22;2054736;28;20779;-66
2021/04/19 01:23:46;;;;;;;4.65;2.95;;;;;;;18.82;44.13;99915.06;2051991;28;20058;-66
2021/04/19 01:24:47;;;;;;;4.17;2.93;;;;;;;18.83;43.95;99915.91;2054764;28;20034;-66
2021/04/19 01:25:48;;;;;;;3.33;2.50;;;;;;;18.84;43.97;99921.22;2054594;28;20772;-65
2021/04/19 01:26:48;;;;;;;4.28;2.70;;;;;;;18.84;43.91;99915.78;2053786;28;20023;-65
2021/04/19 01:27:50;;;;;;;5.47;2.50;;;;;;;18.82;44.11;99915.06;2054153;28;20035;-65
2021/04/19 01:28:52;;;;;;;;;;;;;;;18.79;44.07;99923.56;2051708;28;20702;-65
2021/04/19 01:29:52;;;;;;;3.78;2.85;;;;;;;18.79;44.06;99915.38;2053672;28;19914;-65
2021/04/19 01:30:52;;;;;;;3.63;2.90;;;;;;;18.78;44.21;99913.63;2053239;28;20019;-65
2021/04/19 01:31:53;;;;;;;3.27;2.20;;;;;;;18.79;44.02;99915.38;2053819;28;20500;-65
2021/04/19 01:32:53;;;;;;;3.17;2.40;;;;;;;18.79;44.08;99914.50;2054130;28;20331;-65
2021/04/19 01:33:54;;;;;;;6.00;2.50;;;;;;;18.79;43.99;99915.38;2053439;28;20122;-66
2021/04/19 01:34:54;;;;;;;3.20;2.63;;;;;;;18.78;44.05;99913.63;2052635;28;20023;-65
2021/04/19 01:35:55;;;;;;;3.10;2.80;;;;;;;18.80;43.98;99910.75;2052901;28;20362;-66
2021/04/19 01:36:55;;;;;;;4.07;2.87;;;;;;;18.79;43.92;99912.66;2061783;28;20025;-65
2021/04/19 01:37:56;;;;;;;4.13;2.63;;;;;;;18.80;43.99;99913.50;2060898;28;20026;-65
2021/04/19 01:38:56;;;;;;;5.20;2.90;;;;;;;18.81;43.91;99912.47;2054256;28;20038;-65
2021/04/19 01:39:57;;;;;;;3.00;2.43;;;;;;;18.81;43.90;99918.81;2052287;28;20057;-65
2021/04/19 01:40:57;;;;;;;3.30;2.53;;;;;;;18.80;44.00;99911.63;2047496;28;20406;-66
2021/04/19 01:41:58;;;;;;;4.20;2.80;;;;;;;18.80;44.08;99914.34;2053435;28;20097;-65
2021/04/19 01:42:58;;;;;;;4.10;2.87;;;;;;;18.80;43.97;99908.03;2053229;28;20047;-66
2021/04/19 01:43:59;;;;;;;4.20;2.60;;;;;;;18.82;44.06;99912.31;2053836;28;20019;-65
2021/04/19 01:45:00;;;;;;;5.37;2.90;;;;;;;18.82;43.99;99920.53;2049893;28;20022;-65
2021/04/19 01:46:01;;;;;;;2.47;2.13;;;;;;;18.83;43.68;99915.91;2048877;28;20627;-65
2021/04/19 01:47:01;;;;;;;2.90;2.55;;;;;;;18.84;43.87;99915.78;2053835;28;20038;-66
2021/04/19 01:48:02;;;;;;;3.23;2.50;;;;;;;18.83;43.83;99919.50;2053988;28;20058;-66
2021/04/19 01:49:14;;;;;;;4.00;2.72;;;;;;;18.84;44.00;99923.13;2054251;28;20389;-65
2021/04/19 01:50:20;;;;;;;3.55;2.63;;;;;;;18.82;43.87;99923.25;2051451;28;20469;-66
2021/04/19 01:51:21;;;;;;;3.40;2.53;;;;;;;18.85;43.81;99920.22;2049940;28;20081;-66
2021/04/19 01:52:21;;;;;;;4.50;2.57;;;;;;;18.88;43.70;99918.19;2052500;28;20125;-66
2021/04/19 01:53:23;;;;;;;3.37;2.53;;;;;;;18.88;43.79;99923.66;2052964;28;20034;-66
2021/04/19 01:54:24;;;;;;;3.20;2.38;;;;;;;18.89;43.68;99919.91;2046646;28;20035;-65
2021/04/19 01:55:27;;;;;;;3.97;2.60;;;;;;;18.90;43.72;99927.09;2052690;28;20121;-65
2021/04/19 01:56:28;;;;;;;2.83;2.50;;;;;;;18.91;43.68;99923.34;2054465;28;20066;-65
2021/04/19 01:57:28;;;;;;;5.17;2.70;;;;;;;18.91;43.65;99926.06;2053582;28;20037;-66
2021/04/19 01:58:29;;;;;;;3.33;2.60;;;;;;;18.91;43.75;99923.34;2054267;28;20053;-65
2021/04/19 01:59:29;;;;;;;3.90;2.83;;;;;;;18.91;43.72;99926.06;2054082;28;20133;-65
2021/04/19 02:00:33;;;;;;;3.70;2.53;;;;;;;18.92;43.67;99920.47;2053355;28;20027;-65
2021/04/19 02:01:35;;;;;;;2.97;2.30;;;;;;;18.92;43.56;99927.81;2053395;28;20110;-65
2021/04/19 02:02:51;;;;;;;3.20;2.83;;;;;;;18.89;43.52;99926.25;2052531;28;20392;-66
2021/04/19 02:03:54;;;;;;;3.65;3.00;;;;;;;18.90;43.61;99930.69;2051735;28;20478;-65
2021/04/19 02:04:55;;;;;;;3.38;2.45;;;;;;;18.91;43.54;99934.25;2046680;28;20106;-66
2021/04/19 02:06:09;;;;;;;4.30;2.43;;;;;;;18.90;43.55;99927.94;2048491;28;20031;-65
2021/04/19 02:07:27;;;;;;;3.13;2.40;;;;;;;18.90;43.67;99929.81;2053678;28;20035;-65
2021/04/19 02:08:34;;;;;;;3.22;2.55;;;;;;;18.88;43.52;99932.69;2052849;28;20027;-65
2021/04/19 02:09:49;;;;;;;3.22;2.25;;;;;;;18.85;43.72;99931.13;2054511;28;20110;-65
2021/04/19 02:11:07;;;;;;;3.17;2.45;;;;;;;18.85;43.75;99922.09;2051297;28;20018;-66
2021/04/19 02:12:11;;;;;;;4.45;2.65;;;;;;;18.86;43.52;99921.06;2051524;28;20035;-66
2021/04/19 02:13:48;;;;;;;4.35;2.63;;;;;;;18.87;43.49;99927.41;2053445;28;20034;-65
2021/04/19 02:15:11;;;;;;;4.03;2.80;;;;;;;18.81;43.67;99917.94;2036957;29;20047;-66
2021/04/19 02:16:16;;;;;;;3.67;2.63;;;;;;;18.82;43.65;99920.53;2053206;28;20039;-65
2021/04/19 02:17:58;;;;;;;3.35;2.65;;;;;;;18.80;43.81;99917.06;2053827;28;20062;-66
2021/04/19 02:19:10;;;;;;;3.38;2.78;;;;;;;18.78;43.80;99919.09;2052024;28;20054;-65
2021/04/19 02:20:33;;;;;;;3.45;2.30;;;;;;;18.79;43.83;99920.84;2053145;28;20079;-66
2021/04/19 02:21:48;;;;;;;4.55;2.78;;;;;;;18.79;43.78;99914.50;2035480;28;20383;-66
2021/04/19 02:22:52;;;;;;;2.90;2.35;;;;;;;18.79;43.66;99911.75;2046590;28;20039;-66
2021/04/19 02:24:02;;;;;;;3.70;2.60;;;;;;;18.81;43.71;99918.81;2053406;28;20050;-65
2021/04/19 02:25:29;;;;;;;3.35;2.45;;;;;;;18.81;43.68;99909.75;2053221;28;20084;-65
2021/04/19 02:26:32;;;;;;;2.55;2.15;;;;;;;18.81;43.66;99912.47;2047276;28;20120;-66
2021/04/19 02:27:37;;;;;;;3.05;2.25;;;;;;;18.83;43.42;99915.91;2049116;28;20125;-66
2021/04/19 02:28:47;;;;;;;3.63;2.90;;;;;;;18.79;43.55;99911.75;2057931;28;20031;-65
2021/04/19 02:29:49;;;;;;;3.75;2.50;;;;;;;18.79;43.71;99911.75;2058956;28;20022;-66
2021/04/19 02:30:56;;;;;;;3.30;2.55;;;;;;;18.79;43.78;99915.38;2053600;28;20444;-66
2021/04/19 02:31:59;;;;;;;3.60;2.45;;;;;;;18.79;43.58;99909.91;2048372;28;20038;-66
2021/04/19 02:33:01;;;;;;;3.35;2.50;;;;;;;18.79;43.82;99915.38;2050044;28;20688;-66
2021/04/19 02:34:12;;;;;;;3.53;2.67;;;;;;;18.78;43.78;99921.81;2050625;28;20133;-66
2021/04/19 02:35:17;;;;;;;4.40;2.50;;;;;;;18.78;43.61;99908.19;2051658;28;20079;-66
2021/04/19 02:36:18;;;;;;;4.07;2.50;;;;;;;18.81;43.68;99913.34;2053133;28;20027;-65
2021/04/19 02:37:21;;;;;;;3.20;2.40;;;;;;;18.80;43.58;99908.03;2054226;28;20026;-66
2021/04/19 02:38:29;;;;;;;3.17;2.40;;;;;;;18.80;43.70;99910.75;2053618;28;20635;-65
2021/04/19 02:39:32;;;;;;;3.40;2.60;;;;;;;18.79;43.66;99909.91;2052965;28;20026;-65
2021/04/19 02:40:35;;;;;;;3.97;2.42;;;;;;;18.80;43.61;99908.88;2053582;28;20449;-66
2021/04/19 02:41:37;;;;;;;2.78;2.33;;;;;;;18.81;43.51;99913.34;2052989;28;20105;-66
2021/04/19 02:42:42;;;;;;;3.08;2.30;;;;;;;18.82;43.41;99912.31;2053691;28;20130;-66
2021/04/19 02:43:43;;;;;;;3.45;2.45;;;;;;;18.82;43.58;99915.06;2053905;28;20639;-66
2021/04/19 02:44:48;;;;;;;3.40;2.53;;;;;;;18.81;43.50;99917.94;2052627;28;20489;-66
2021/04/19 02:45:50;;;;;;;4.60;2.67;;;;;;;18.83;43.54;99915.91;2050892;28;20023;-65
2021/04/19 02:46:53;;;;;;;3.75;2.38;;;;;;;18.83;43.59;99915.91;2055271;28;20018;-66
2021/04/19 02:47:54;;;;;;;2.67;2.25;;;;;;;18.83;43.47;99916.75;2054461;28;20394;-65
2021/04/19 02:48:56;;;;;;;4.63;2.83;;;;;;;18.83;43.55;99911.31;2054468;28;20114;-66
2021/04/19 02:49:57;;;;;;;3.90;2.75;;;;;;;18.84;43.58;99913.03;2053889;28;20713;-66
2021/04/19 02:51:00;;;;;;;3.80;2.53;;;;;;;18.84;43.55;99918.50;2052580;28;20034;-66
2021/04/19 02:52:04;;;;;;;2.78;2.25;;;;;;;18.85;43.46;99924.81;2055199;28;20184;-65
2021/04/19 02:53:05;;;;;;;4.43;2.60;;;;;;;18.86;43.49;99921.06;2054222;28;20068;-66
2021/04/19 02:54:06;;;;;;;4.68;2.72;;;;;;;18.88;43.36;99923.66;2055691;28;20038;-65
2021/04/19 02:55:07;;;;;;;3.73;2.70;;;;;;;18.86;43.41;99923.78;2053474;28;20031;-65
2021/04/19 02:56:12;;;;;;;4.50;2.97;;;;;;;18.87;43.40;99917.34;2054870;28;20022;-65
2021/04/19 02:57:24;;;;;;;4.22;2.28;;;;;;;18.88;43.22;99921.78;2053750;28;20057;-65
2021/04/19 02:58:54;;;;;;;3.15;2.70;;;;;;;18.87;43.25;99921.94;2049474;28;20078;-66
2021/04/19 02:59:57;;;;;;;4.15;2.40;;;;;;;18.89;43.35;99919.91;2051138;28;20034;-65
2021/04/19 03:00:59;;;;;;;4.50;2.55;;;;;;;18.88;43.26;99924.50;2055172;28;20027;-65
2021/04/19 03:02:03;;;;;;;;;;;;;;;18.83;43.23;99919.50;2055490;28;20045;-66
2021/04/19 03:03:10;;;;;;;3.08;2.20;;;;;;;18.85;43.41;99925.66;2055679;28;19921;-66
2021/04/19 03:04:15;;;;;;;2.92;2.20;;;;;;;18.88;43.31;99923.66;2048075;28;20151;-66
2021/04/19 03:05:17;;;;;;;3.28;2.58;;;;;;;18.85;43.39;99922.09;2054895;28;20027;-65
2021/04/19 03:06:19;;;;;;;3.47;2.67;;;;;;;18.88;43.31;99929.13;2055039;28;20037;-66
2021/04/19 03:07:27;;;;;;;4.93;2.85;;;;;;;18.85;43.48;99920.22;2055329;28;20126;-65
2021/04/19 03:08:30;;;;;;;4.32;2.67;;;;;;;18.88;43.20;99929.97;2050647;28;20033;-65
2021/04/19 03:09:31;;;;;;;3.20;2.58;;;;;;;18.86;43.28;99926.53;2055408;28;20586;-66
2021/04/19 03:10:36;;;;;;;3.40;2.53;;;;;;;18.87;43.24;99930.13;2054680;28;20046;-66
2021/04/19 03:11:45;;;;;;;3.25;2.53;;;;;;;18.84;43.45;99918.50;2055072;28;20496;-65
2021/04/19 03:12:52;;;;;;;3.63;1.92;;;;;;;18.85;43.25;99925.66;2047749;29;20114;-65
2021/04/19 03:13:56;;;;;;;3.60;2.70;;;;;;;18.85;43.34;99925.66;2049895;28;20023;-65
2021/04/19 03:15:12;;;;;;;4.43;2.30;;;;;;;18.83;43.40;99922.22;2048992;28;20076;-65
2021/04/19 03:16:33;;;;;;;3.35;2.20;;;;;;;18.82;43.34;99920.53;2045054;28;20034;-66
2021/04/19 03:17:34;;;;;;;3.22;2.42;;;;;;;18.82;43.35;99930.59;2054890;28;20022;-66
2021/04/19 03:18:38;;;;;;;3.25;2.40;;;;;;;18.83;43.39;99927.69;2061579;28;20101;-66
2021/04/19 03:19:44;;;;;;;3.42;2.40;;;;;;;18.81;43.32;99923.41;2054618;28;20650;-66
2021/04/19 03:21:05;;;;;;;4.20;2.40;;;;;;;18.81;43.42;99924.28;2052897;28;20018;-65
2021/04/19 03:22:22;;;;;;;4.93;2.47;;;;;;;18.81;43.42;99921.56;2054818;28;20086;-65
2021/04/19 03:23:23;;;;;;;2.95;2.42;;;;;;;18.82;43.30;99920.53;2054871;28;20492;-65
2021/04/19 03:24:24;;;;;;;2.97;2.37;;;;;;;18.83;43.31;99916.75;2054429;28;20027;-65
2021/04/19 03:25:28;;;;;;;2.65;2.00;;;;;;;18.82;43.17;99922.41;2052668;28;20441;-65
2021/04/19 03:26:32;;;;;;;2.90;2.30;;;;;;;18.83;43.21;99922.22;2055398;28;20448;-65
2021/04/19 03:27:34;;;;;;;3.40;2.30;;;;;;;18.85;43.42;99924.81;2052537;28;20502;-65
2021/04/19 03:28:37;;;;;;;2.75;2.28;;;;;;;18.81;43.43;99918.81;2053571;28;20035;-65
2021/04/19 03:29:40;;;;;;;3.00;2.60;;;;;;;18.82;43.22;99915.06;2054525;28;20097;-65
2021/04/19 03:30:40;;;;;;;3.85;2.50;;;;;;;18.84;43.31;99918.50;2054841;28;20561;-65
2021/04/19 03:31:45;;;;;;;3.67;2.30;;;;;;;18.80;43.33;99919.81;2053405;28;20528;-65
2021/04/19 03:32:49;;;;;;;4.32;2.60;;;;;;;18.81;43.19;99918.81;2048785;28;20433;-65
2021/04/19 03:33:53;;;;;;;3.75;2.13;;;;;;;18.81;43.21;99921.56;2050181;28;20019;-65
2021/04/19 03:34:53;;;;;;;4.70;2.67;;;;;;;18.80;43.32;99917.06;2048602;28;20124;-65
2021/04/19 03:35:54;;;;;;;3.10;2.70;;;;;;;18.81;43.19;99916.09;2053149;28;20026;-65
2021/04/19 03:37:03;;;;;;;3.33;2.67;;;;;;;18.79;43.26;99915.38;2054805;28;20073;-65
2021/04/19 03:38:05;;;;;;;3.05;2.35;;;;;;;18.79;43.24;99920.84;2054365;28;20254;-64
2021/04/19 03:39:07;;;;;;;2.80;2.08;;;;;;;18.81;43.26;99915.19;2055353;28;20022;-65
2021/04/19 03:40:16;;;;;;;4.15;2.58;;;;;;;18.80;43.25;99914.34;2054880;28;20089;-65
2021/04/19 03:41:18;;;;;;;2.83;2.20;;;;;;;18.82;43.23;99920.53;2049914;28;20553;-65
2021/04/19 03:42:40;;;;;;;3.58;2.65;;;;;;;18.80;43.24;99917.06;2052633;28;20034;-65
2021/04/19 03:43:45;;;;;;;3.35;2.40;;;;;;;18.80;43.26;99914.34;2048204;28;20442;-65
2021/04/19 03:44:46;;;;;;;3.83;2.65;;;;;;;18.81;43.15;99918.81;2052469;28;20023;-65
2021/04/19 03:45:50;;;;;;;3.67;2.90;;;;;;;18.81;43.08;99918.81;2054537;28;20058;-65
2021/04/19 03:46:54;;;;;;;4.10;2.50;;;;;;;18.81;43.26;99924.28;2051157;28;20035;-65
2021/04/19 03:47:56;;;;;;;3.50;2.22;;;;;;;18.83;43.26;99919.50;2054782;28;20029;-65
2021/04/19 03:49:02;;;;;;;2.65;2.25;;;;;;;18.85;43.22;99917.47;2055212;28;20046;-65
2021/04/19 03:50:05;;;;;;;3.33;2.40;;;;;;;18.87;43.11;99921.94;2054022;28;20026;-65
2021/04/19 03:51:08;;;;;;;2.92;2.42;;;;;;;18.87;42.99;99916.47;2054858;28;20490;-65
2021/04/19 03:52:14;;;;;;;2.92;2.45;;;;;;;18.85;43.15;99914.75;2050723;28;20398;-65
2021/04/19 03:53:24;;;;;;;3.55;2.55;;;;;;;18.86;43.03;99912.88;2048061;28;20081;-65
2021/04/19 03:54:29;;;;;;;4.35;3.05;;;;;;;18.88;42.97;99923.66;2051527;28;20501;-65
2021/04/19 03:55:30;;;;;;;3.55;2.38;;;;;;;18.88;43.19;99926.38;2053865;28;20034;-65
2021/04/19 03:56:34;;;;;;;3.13;2.20;;;;;;;18.89;42.96;99919.91;2054337;28;20152;-65
2021/04/19 03:57:36;;;;;;;2.55;1.92;;;;;;;18.90;43.03;99925.22;2049377;28;20046;-65
2021/04/19 03:58:37;;;;;;;2.72;2.40;;;;;;;18.89;43.04;99914.44;2053246;28;20027;-65
2021/04/19 03:59:40;;;;;;;4.03;2.08;;;;;;;18.88;42.99;99916.31;2055178;28;20118;-65
2021/04/19 04:00:42;;;;;;;3.78;2.40;;;;;;;18.88;43.00;99916.31;2053489;28;20031;-65
2021/04/19 04:01:43;;;;;;;2.92;2.13;;;;;;;18.90;42.76;99916.16;2053467;28;20034;-65
2021/04/19 04:02:52;;;;;;;2.30;2.07;;;;;;;18.91;42.81;99917.88;2054731;28;20114;-65
2021/04/19 04:03:53;;;;;;;2.63;2.03;;;;;;;18.91;42.98;99920.59;2055020;28;20042;-65
2021/04/19 04:04:56;;;;;;;2.60;2.13;;;;;;;18.90;42.72;99922.47;2053902;28;20050;-65
2021/04/19 04:05:58;;;;;;;3.35;2.53;;;;;;;18.89;42.83;99920.78;2048696;28;20071;-65
2021/04/19 04:07:00;;;;;;;2.70;2.38;;;;;;;18.88;42.84;99924.50;2054965;28;20066;-65
2021/04/19 04:08:02;;;;;;;3.25;2.28;;;;;;;18.88;42.89;99923.66;2061656;28;20521;-66
2021/04/19 04:09:03;;;;;;;3.35;2.05;;;;;;;18.88;43.04;99929.97;2061750;28;20042;-65
2021/04/19 04:10:06;;;;;;;3.67;1.90;;;;;;;18.88;43.00;99920.91;2054747;28;20022;-65
2021/04/19 04:11:08;;;;;;;3.58;2.15;;;;;;;18.86;42.92;99923.78;2049761;28;20035;-65
2021/04/19 04:12:11;;;;;;;4.18;2.45;;;;;;;18.86;42.81;99923.78;2052967;28;20062;-65
2021/04/19 04:13:12;;;;;;;2.45;2.25;;;;;;;18.85;42.87;99930.28;2055035;28;20034;-65
2021/04/19 04:14:12;;;;;;;3.43;2.40;;;;;;;18.87;42.83;99927.41;2053474;28;20094;-65
2021/04/19 04:15:13;;;;;;;2.43;2.03;;;;;;;18.84;42.96;99918.50;2052714;28;20022;-65
2021/04/19 04:16:13;;;;;;;2.77;2.20;;;;;;;18.82;43.06;99925.97;2047715;28;20569;-65
2021/04/19 04:17:15;;;;;;;3.33;2.27;;;;;;;18.81;43.08;99918.81;2052248;28;20038;-65
2021/04/19 04:18:16;;;;;;;4.00;2.45;;;;;;;18.81;42.87;99924.28;2054178;28;20027;-65
2021/04/19 04:19:16;;;;;;;2.73;2.00;;;;;;;18.81;42.98;99921.56;2055077;28;20019;-65
2021/04/19 04:20:17;;;;;;;2.77;2.33;;;;;;;18.82;42.95;99915.06;2054645;28;20019;-65
2021/04/19 04:21:17;;;;;;;2.60;2.10;;;;;;;18.82;43.01;99923.25;2053305;28;20031;-65
2021/04/19 04:22:18;;;;;;;3.33;2.33;;;;;;;18.83;42.76;99913.19;2053849;28;20061;-65
2021/04/19 04:23:19;;;;;;;2.50;2.07;;;;;;;18.84;42.97;99920.38;2050830;28;20360;-65
2021/04/19 04:24:20;;;;;;;2.80;2.30;;;;;;;18.83;42.84;99922.22;2054338;28;20422;-65
2021/04/19 04:25:20;;;;;;;3.83;2.40;;;;;;;18.83;42.88;99914.03;2052322;28;20027;-65
2021/04/19 04:26:21;;;;;;;3.63;2.07;;;;;;;18.82;42.71;99917.78;2052627;28;20105;-65
2021/04/19 04:27:22;;;;;;;3.20;1.97;;;;;;;18.82;42.71;99914.22;2052634;28;20034;-65
2021/04/19 04:28:23;;;;;;;2.40;2.00;;;;;;;18.80;42.92;99911.63;2052218;28;20110;-65
2021/04/19 04:29:26;;;;;;;3.53;2.60;;;;;;;18.80;42.92;99911.63;2052808;28;20233;-65
2021/04/19 04:30:27;;;;;;;2.88;2.15;;;;;;;18.81;42.88;99921.56;2053215;28;20040;-65
2021/04/19 04:31:28;;;;;;;2.42;1.95;;;;;;;18.80;42.94;99917.06;2052316;28;20110;-65
2021/04/19 04:32:28;;;;;;;3.37;2.43;;;;;;;18.79;42.88;99909.91;2052966;28;20018;-65
2021/04/19 04:33:29;;;;;;;3.33;2.30;;;;;;;18.80;42.84;99919.81;2054069;28;20015;-65
2021/04/19 04:34:29;;;;;;;4.87;2.80;;;;;;;18.80;42.87;99922.53;2053327;28;20840;-65
2021/04/19 04:35:30;;;;;;;2.80;2.20;;;;;;;18.80;42.83;99919.81;2053144;28;20117;-65
2021/04/19 04:36:30;;;;;;;3.92;2.30;;;;;;;18.80;42.73;99917.06;2053348;28;20026;-64
2021/04/19 04:37:31;;;;;;;2.77;2.40;;;;;;;18.80;42.79;99917.06;2054762;28;20035;-65
2021/04/19 04:38:32;;;;;;;3.00;2.40;;;;;;;18.81;42.83;99921.56;2054622;28;20114;-65
2021/04/19 04:39:32;;;;;;;3.23;2.40;;;;;;;18.81;42.85;99913.34;2053487;28;20023;-65
2021/04/19 04:40:33;;;;;;;2.53;2.23;;;;;;;18.81;42.78;99918.81;2053912;28;20030;-65
2021/04/19 04:41:34;;;;;;;3.10;2.55;;;;;;;18.82;42.90;99915.06;2054545;28;20027;-65
2021/04/19 04:42:35;;;;;;;3.00;2.13;;;;;;;18.81;42.85;99913.34;2051181;28;20520;-65
2021/04/19 04:43:37;;;;;;;3.08;2.30;;;;;;;18.82;42.79;99920.53;2052808;28;20015;-65
2021/04/19 04:44:41;;;;;;;4.32;2.60;;;;;;;18.82;42.43;99915.06;2045650;28;20526;-65
2021/04/19 04:45:42;;;;;;;3.08;2.28;;;;;;;18.83;42.75;99918.66;2053470;28;20026;-65
2021/04/19 04:47:03;;;;;;;3.17;2.17;;;;;;;18.82;42.70;99920.53;2050803;28;20374;-65
2021/04/19 04:48:19;;;;;;;3.53;2.50;;;;;;;18.81;42.66;99916.09;2052774;28;20661;-64
2021/04/19 04:49:25;;;;;;;3.85;2.03;;;;;;;18.83;42.61;99918.66;2053220;28;20769;-64
2021/04/19 04:50:41;;;;;;;2.78;2.30;;;;;;;18.83;42.70;99922.22;2046948;28;20038;-64
2021/04/19 04:51:49;;;;;;;2.78;2.47;;;;;;;18.85;42.73;99922.09;2054333;28;20553;-70
2021/04/19 04:53:12;;;;;;;4.72;2.80;;;;;;;18.89;42.54;99920.78;2054430;28;20091;-65
2021/04/19 04:54:15;;;;;;;;;;;;;;;18.82;42.88;99919.66;2054052;28;20031;-62
2021/04/19 04:55:17;;;;;;;5.57;2.80;;;;;;;18.88;42.86;99926.38;2054705;28;19914;-62
2021/04/19 04:56:19;;;;;;;;;;;;;;;18.82;42.85;99915.06;2054827;28;20056;-62
2021/04/19 04:57:21;;;;;;;4.35;2.17;;;;;;;18.87;42.63;99921.94;2052351;28;19920;-62
2021/04/19 04:58:23;;;;;;;3.38;2.30;;;;;;;18.88;42.57;99923.66;2050234;28;20515;-62
2021/04/19 04:59:27;;;;;;;6.80;2.40;;;;;;;18.91;42.50;99928.81;2051423;28;20500;-62